sensor_id;sensor_type;location;lat;lon;timestamp;temperature;humidity
46898;DHT22;32646;50.958;6.258;2023-03-01T01:17:14;-1.40;99.90
46898;DHT22;32646;50.958;6.258;2023-03-01T01:19:40;-1.40;99.90
46898;DHT22;32646;50.958;6.258;2023-03-01T01:22:07;-1.50;99.90
46898;DHT22;32646;50.958;6.258;2023-03-01T01:24:33;-1.60;99.90
46898;DHT22;32646;50.958;6.258;2023-03-01T01:27:00;-1.70;99.90
46898;DHT22;32646;50.958;6.258;2023-03-01T01:29:26;-1.70;99.90
46898;DHT22;32646;50.958;6.258;2023-03-01T01:31:53;-1.60;99.90
46898;DHT22;32646;50.958;6.258;2023-03-01T01:34:21;-1.50;99.90
46898;DHT22;32646;50.958;6.258;2023-03-01T01:36:49;-1.50;99.90
46898;DHT22;32646;50.958;6.258;2023-03-01T01:39:15;-1.50;99.90
46898;DHT22;32646;50.958;6.258;2023-03-01T01:41:42;-1.60;99.90
46898;DHT22;32646;50.958;6.258;2023-03-01T01:44:16;-1.60;99.90
46898;DHT22;32646;50.958;6.258;2023-03-01T01:47:06;-1.60;99.90
46898;DHT22;32646;50.958;6.258;2023-03-01T01:49:40;-1.50;99.90
46898;DHT22;32646;50.958;6.258;2023-03-01T01:52:18;-1.60;99.90
46898;DHT22;32646;50.958;6.258;2023-03-01T01:55:11;-1.60;99.90
46898;DHT22;32646;50.958;6.258;2023-03-01T01:57:41;-1.70;99.90
46898;DHT22;32646;50.958;6.258;2023-03-01T02:00:19;-1.80;99.90
46898;DHT22;32646;50.958;6.258;2023-03-01T02:02:49;-1.90;99.90
46898;DHT22;32646;50.958;6.258;2023-03-01T02:07:59;-2.10;99.90
46898;DHT22;32646;50.958;6.258;2023-03-01T02:10:28;-2.30;99.90
46898;DHT22;32646;50.958;6.258;2023-03-01T02:12:55;-2.30;99.90
46898;DHT22;32646;50.958;6.258;2023-03-01T02:15:23;-2.40;99.90
46898;DHT22;32646;50.958;6.258;2023-03-01T02:17:50;-2.50;99.90
46898;DHT22;32646;50.958;6.258;2023-03-01T02:20:33;-2.60;99.90
46898;DHT22;32646;50.958;6.258;2023-03-01T02:23:01;-2.60;99.90
46898;DHT22;32646;50.958;6.258;2023-03-01T02:28:36;-2.70;99.90
46898;DHT22;32646;50.958;6.258;2023-03-01T02:31:06;-2.70;99.90
46898;DHT22;32646;50.958;6.258;2023-03-01T02:33:35;-2.80;99.90
46898;DHT22;32646;50.958;6.258;2023-03-01T02:36:06;-2.90;99.90
46898;DHT22;32646;50.958;6.258;2023-03-01T02:38:34;-2.90;99.90
46898;DHT22;32646;50.958;6.258;2023-03-01T02:41:02;-3.00;99.90
46898;DHT22;32646;50.958;6.258;2023-03-01T02:43:33;-3.10;99.90
46898;DHT22;32646;50.958;6.258;2023-03-01T02:46:04;-3.00;99.90
46898;DHT22;32646;50.958;6.258;2023-03-01T02:48:43;-3.00;99.90
46898;DHT22;32646;50.958;6.258;2023-03-01T02:54:05;-3.10;99.90
46898;DHT22;32646;50.958;6.258;2023-03-01T02:56:34;-3.10;99.90
46898;DHT22;32646;50.958;6.258;2023-03-01T02:59:00;-3.20;99.90
46898;DHT22;32646;50.958;6.258;2023-03-01T03:01:29;-3.20;99.90
46898;DHT22;32646;50.958;6.258;2023-03-01T03:03:55;-3.20;99.90
46898;DHT22;32646;50.958;6.258;2023-03-01T03:06:22;-3.10;99.90
46898;DHT22;32646;50.958;6.258;2023-03-01T03:08:48;-3.00;99.90
46898;DHT22;32646;50.958;6.258;2023-03-01T03:11:15;-2.90;99.90
46898;DHT22;32646;50.958;6.258;2023-03-01T03:13:41;-2.80;99.90
46898;DHT22;32646;50.958;6.258;2023-03-01T03:16:08;-2.70;99.90
46898;DHT22;32646;50.958;6.258;2023-03-01T03:18:34;-2.70;99.90
46898;DHT22;32646;50.958;6.258;2023-03-01T03:21:01;-2.70;99.90
46898;DHT22;32646;50.958;6.258;2023-03-01T03:23:27;-2.70;99.90
46898;DHT22;32646;50.958;6.258;2023-03-01T03:25:54;-2.60;99.90
46898;DHT22;32646;50.958;6.258;2023-03-01T03:28:21;-2.60;99.90
46898;DHT22;32646;50.958;6.258;2023-03-01T03:30:47;-2.70;99.90
46898;DHT22;32646;50.958;6.258;2023-03-01T03:33:14;-2.70;99.90
46898;DHT22;32646;50.958;6.258;2023-03-01T03:35:45;-2.70;99.90
46898;DHT22;32646;50.958;6.258;2023-03-01T03:38:14;-2.80;99.90
46898;DHT22;32646;50.958;6.258;2023-03-01T03:40:46;-2.80;99.90
46898;DHT22;32646;50.958;6.258;2023-03-01T03:43:18;-2.80;99.90
46898;DHT22;32646;50.958;6.258;2023-03-01T03:45:46;-2.70;99.90
46898;DHT22;32646;50.958;6.258;2023-03-01T03:48:14;-2.70;99.90
46898;DHT22;32646;50.958;6.258;2023-03-01T03:50:41;-2.70;99.90
46898;DHT22;32646;50.958;6.258;2023-03-01T03:53:09;-2.70;99.90
46898;DHT22;32646;50.958;6.258;2023-03-01T03:55:36;-2.80;99.90
46898;DHT22;32646;50.958;6.258;2023-03-01T03:58:03;-2.80;99.90
46898;DHT22;32646;50.958;6.258;2023-03-01T04:00:30;-2.80;99.90
46898;DHT22;32646;50.958;6.258;2023-03-01T04:02:56;-2.70;99.90
46898;DHT22;32646;50.958;6.258;2023-03-01T04:05:23;-2.70;99.90
46898;DHT22;32646;50.958;6.258;2023-03-01T04:07:50;-2.80;99.90
46898;DHT22;32646;50.958;6.258;2023-03-01T04:10:17;-2.90;99.90
46898;DHT22;32646;50.958;6.258;2023-03-01T04:12:44;-2.90;99.90
46898;DHT22;32646;50.958;6.258;2023-03-01T04:15:11;-2.90;99.90
46898;DHT22;32646;50.958;6.258;2023-03-01T04:17:42;-3.00;99.90
46898;DHT22;32646;50.958;6.258;2023-03-01T04:20:21;-3.00;99.90
46898;DHT22;32646;50.958;6.258;2023-03-01T04:22:48;-3.10;99.90
46898;DHT22;32646;50.958;6.258;2023-03-01T04:25:15;-3.20;99.90
46898;DHT22;32646;50.958;6.258;2023-03-01T04:27:41;-3.20;99.90
46898;DHT22;32646;50.958;6.258;2023-03-01T04:30:08;-3.20;99.90
46898;DHT22;32646;50.958;6.258;2023-03-01T04:32:35;-3.30;99.90
46898;DHT22;32646;50.958;6.258;2023-03-01T04:35:02;-3.20;99.90
46898;DHT22;32646;50.958;6.258;2023-03-01T04:37:28;-3.30;99.90
46898;DHT22;32646;50.958;6.258;2023-03-01T04:39:55;-3.30;99.90
46898;DHT22;32646;50.958;6.258;2023-03-01T04:42:22;-3.40;99.90
46898;DHT22;32646;50.958;6.258;2023-03-01T04:44:48;-3.50;99.90
46898;DHT22;32646;50.958;6.258;2023-03-01T04:47:15;-3.60;99.90
46898;DHT22;32646;50.958;6.258;2023-03-01T04:49:41;-3.70;99.90
46898;DHT22;32646;50.958;6.258;2023-03-01T04:52:10;-3.80;99.90
46898;DHT22;32646;50.958;6.258;2023-03-01T04:54:39;-3.80;99.90
46898;DHT22;32646;50.958;6.258;2023-03-01T04:57:06;-3.80;99.90
46898;DHT22;32646;50.958;6.258;2023-03-01T04:59:32;-3.90;99.90
46898;DHT22;32646;50.958;6.258;2023-03-01T05:01:59;-3.90;99.90
46898;DHT22;32646;50.958;6.258;2023-03-01T05:04:26;-3.90;99.90
46898;DHT22;32646;50.958;6.258;2023-03-01T05:06:52;-4.00;99.90
46898;DHT22;32646;50.958;6.258;2023-03-01T05:09:19;-4.00;99.90
46898;DHT22;32646;50.958;6.258;2023-03-01T05:11:46;-4.00;99.90
46898;DHT22;32646;50.958;6.258;2023-03-01T05:14:12;-4.10;99.90
46898;DHT22;32646;50.958;6.258;2023-03-01T05:16:39;-4.10;99.90
46898;DHT22;32646;50.958;6.258;2023-03-01T05:19:05;-4.10;99.90
46898;DHT22;32646;50.958;6.258;2023-03-01T05:21:32;-4.10;99.90
46898;DHT22;32646;50.958;6.258;2023-03-01T05:23:58;-4.10;99.90
46898;DHT22;32646;50.958;6.258;2023-03-01T05:26:25;-4.20;99.90
46898;DHT22;32646;50.958;6.258;2023-03-01T05:28:55;-4.20;99.90
46898;DHT22;32646;50.958;6.258;2023-03-01T05:31:21;-4.10;99.90
46898;DHT22;32646;50.958;6.258;2023-03-01T05:33:48;-4.20;99.90
46898;DHT22;32646;50.958;6.258;2023-03-01T05:36:14;-4.20;99.90
46898;DHT22;32646;50.958;6.258;2023-03-01T05:38:41;-4.20;99.90
46898;DHT22;32646;50.958;6.258;2023-03-01T05:41:14;-4.20;99.90
46898;DHT22;32646;50.958;6.258;2023-03-01T05:43:41;-4.30;99.90
46898;DHT22;32646;50.958;6.258;2023-03-01T05:46:07;-4.30;99.90
46898;DHT22;32646;50.958;6.258;2023-03-01T05:48:34;-4.40;99.90
46898;DHT22;32646;50.958;6.258;2023-03-01T05:51:00;-4.40;99.90
46898;DHT22;32646;50.958;6.258;2023-03-01T05:53:27;-4.60;99.90
46898;DHT22;32646;50.958;6.258;2023-03-01T05:55:53;-4.60;99.90
46898;DHT22;32646;50.958;6.258;2023-03-01T05:58:20;-4.60;99.90
46898;DHT22;32646;50.958;6.258;2023-03-01T06:00:48;-4.40;99.90
46898;DHT22;32646;50.958;6.258;2023-03-01T06:03:16;-4.30;99.90
46898;DHT22;32646;50.958;6.258;2023-03-01T06:05:44;-4.10;99.90
46898;DHT22;32646;50.958;6.258;2023-03-01T06:08:11;-4.10;99.90
46898;DHT22;32646;50.958;6.258;2023-03-01T06:10:39;-4.00;99.90
46898;DHT22;32646;50.958;6.258;2023-03-01T06:13:05;-4.10;99.90
46898;DHT22;32646;50.958;6.258;2023-03-01T06:15:32;-4.10;99.90
46898;DHT22;32646;50.958;6.258;2023-03-01T06:17:58;-4.10;99.90
46898;DHT22;32646;50.958;6.258;2023-03-01T06:20:27;-4.10;99.90
46898;DHT22;32646;50.958;6.258;2023-03-01T06:22:54;-4.10;99.90
46898;DHT22;32646;50.958;6.258;2023-03-01T06:25:25;-4.10;99.90
46898;DHT22;32646;50.958;6.258;2023-03-01T06:27:51;-4.00;99.90
46898;DHT22;32646;50.958;6.258;2023-03-01T06:30:20;-3.90;99.90
46898;DHT22;32646;50.958;6.258;2023-03-01T06:32:47;-3.60;99.90
46898;DHT22;32646;50.958;6.258;2023-03-01T06:35:15;-3.40;99.90
46898;DHT22;32646;50.958;6.258;2023-03-01T06:37:41;-3.50;99.90
46898;DHT22;32646;50.958;6.258;2023-03-01T06:40:10;-3.60;99.90
46898;DHT22;32646;50.958;6.258;2023-03-01T06:42:38;-3.60;99.90
46898;DHT22;32646;50.958;6.258;2023-03-01T06:45:06;-3.60;99.90
46898;DHT22;32646;50.958;6.258;2023-03-01T06:47:33;-3.50;99.90
46898;DHT22;32646;50.958;6.258;2023-03-01T06:50:01;-3.50;99.90
46898;DHT22;32646;50.958;6.258;2023-03-01T06:52:27;-3.40;99.90
46898;DHT22;32646;50.958;6.258;2023-03-01T06:54:54;-3.40;99.90
46898;DHT22;32646;50.958;6.258;2023-03-01T06:57:20;-3.40;99.90
46898;DHT22;32646;50.958;6.258;2023-03-01T06:59:47;-3.30;99.90
46898;DHT22;32646;50.958;6.258;2023-03-01T07:02:14;-3.30;99.90
46898;DHT22;32646;50.958;6.258;2023-03-01T07:04:41;-3.20;99.90
46898;DHT22;32646;50.958;6.258;2023-03-01T07:07:08;-3.10;99.90
46898;DHT22;32646;50.958;6.258;2023-03-01T07:09:34;-3.00;99.90
46898;DHT22;32646;50.958;6.258;2023-03-01T07:12:01;-3.00;99.90
46898;DHT22;32646;50.958;6.258;2023-03-01T07:14:28;-2.90;99.90
46898;DHT22;32646;50.958;6.258;2023-03-01T07:16:55;-2.80;99.90
46898;DHT22;32646;50.958;6.258;2023-03-01T07:19:22;-2.60;99.90
46898;DHT22;32646;50.958;6.258;2023-03-01T07:21:48;-2.40;99.90
46898;DHT22;32646;50.958;6.258;2023-03-01T07:24:15;-2.30;99.90
46898;DHT22;32646;50.958;6.258;2023-03-01T07:26:42;-2.10;99.90
46898;DHT22;32646;50.958;6.258;2023-03-01T07:29:10;-1.70;99.90
46898;DHT22;32646;50.958;6.258;2023-03-01T07:31:37;-0.90;99.90
46898;DHT22;32646;50.958;6.258;2023-03-01T07:34:03;-0.30;99.90
46898;DHT22;32646;50.958;6.258;2023-03-01T07:36:30;0.30;99.90
46898;DHT22;32646;50.958;6.258;2023-03-01T07:38:57;0.80;99.90
46898;DHT22;32646;50.958;6.258;2023-03-01T07:41:24;1.40;99.90
46898;DHT22;32646;50.958;6.258;2023-03-01T07:43:50;2.40;99.90
46898;DHT22;32646;50.958;6.258;2023-03-01T07:46:17;2.60;99.90
46898;DHT22;32646;50.958;6.258;2023-03-01T07:48:43;2.50;99.40
46898;DHT22;32646;50.958;6.258;2023-03-01T07:51:10;2.70;99.80
46898;DHT22;32646;50.958;6.258;2023-03-01T07:53:37;3.00;98.30
46898;DHT22;32646;50.958;6.258;2023-03-01T07:56:11;2.90;96.80
46898;DHT22;32646;50.958;6.258;2023-03-01T07:58:40;3.60;96.70
46898;DHT22;32646;50.958;6.258;2023-03-01T08:01:09;3.80;95.30
46898;DHT22;32646;50.958;6.258;2023-03-01T08:03:37;3.70;94.50
46898;DHT22;32646;50.958;6.258;2023-03-01T08:06:06;3.40;95.30
46898;DHT22;32646;50.958;6.258;2023-03-01T08:08:33;3.00;95.30
46898;DHT22;32646;50.958;6.258;2023-03-01T08:11:00;3.00;96.90
46898;DHT22;32646;50.958;6.258;2023-03-01T08:13:28;3.20;96.00
46898;DHT22;32646;50.958;6.258;2023-03-01T08:15:59;3.10;96.60
46898;DHT22;32646;50.958;6.258;2023-03-01T08:18:26;3.50;95.40
46898;DHT22;32646;50.958;6.258;2023-03-01T08:20:53;3.70;94.40
46898;DHT22;32646;50.958;6.258;2023-03-01T08:23:23;4.20;93.00
46898;DHT22;32646;50.958;6.258;2023-03-01T08:25:50;4.20;93.70
46898;DHT22;32646;50.958;6.258;2023-03-01T08:28:17;4.30;94.60
46898;DHT22;32646;50.958;6.258;2023-03-01T08:30:43;4.50;93.90
46898;DHT22;32646;50.958;6.258;2023-03-01T08:33:10;4.90;93.40
46898;DHT22;32646;50.958;6.258;2023-03-01T08:35:36;4.90;92.50
46898;DHT22;32646;50.958;6.258;2023-03-01T08:38:03;5.00;92.20
46898;DHT22;32646;50.958;6.258;2023-03-01T08:40:32;5.30;92.40
46898;DHT22;32646;50.958;6.258;2023-03-01T08:42:58;5.40;92.30
46898;DHT22;32646;50.958;6.258;2023-03-01T08:45:25;5.50;91.70
46898;DHT22;32646;50.958;6.258;2023-03-01T08:47:54;5.50;91.40
46898;DHT22;32646;50.958;6.258;2023-03-01T08:50:21;5.50;92.30
46898;DHT22;32646;50.958;6.258;2023-03-01T08:52:47;6.10;91.00
46898;DHT22;32646;50.958;6.258;2023-03-01T08:55:15;6.00;90.90
46898;DHT22;32646;50.958;6.258;2023-03-01T08:57:42;5.00;90.90
46898;DHT22;32646;50.958;6.258;2023-03-01T09:00:10;5.20;91.50
46898;DHT22;32646;50.958;6.258;2023-03-01T09:02:37;5.60;91.60
46898;DHT22;32646;50.958;6.258;2023-03-01T09:05:03;5.60;89.80
46898;DHT22;32646;50.958;6.258;2023-03-01T09:07:30;5.80;90.40
46898;DHT22;32646;50.958;6.258;2023-03-01T09:09:57;5.10;90.70
46898;DHT22;32646;50.958;6.258;2023-03-01T09:12:23;5.80;91.90
46898;DHT22;32646;50.958;6.258;2023-03-01T09:14:50;6.20;88.60
46898;DHT22;32646;50.958;6.258;2023-03-01T09:17:16;6.30;89.40
46898;DHT22;32646;50.958;6.258;2023-03-01T09:19:43;6.60;88.00
46898;DHT22;32646;50.958;6.258;2023-03-01T09:22:09;6.30;87.10
46898;DHT22;32646;50.958;6.258;2023-03-01T09:24:36;6.50;87.00
46898;DHT22;32646;50.958;6.258;2023-03-01T09:27:02;6.80;86.90
46898;DHT22;32646;50.958;6.258;2023-03-01T09:29:29;6.00;88.30
46898;DHT22;32646;50.958;6.258;2023-03-01T09:31:57;6.00;88.70
46898;DHT22;32646;50.958;6.258;2023-03-01T09:34:24;6.10;87.80
46898;DHT22;32646;50.958;6.258;2023-03-01T09:36:50;6.20;89.10
46898;DHT22;32646;50.958;6.258;2023-03-01T09:39:17;6.50;86.80
46898;DHT22;32646;50.958;6.258;2023-03-01T09:41:58;7.20;84.60
46898;DHT22;32646;50.958;6.258;2023-03-01T09:47:05;6.00;88.00
46898;DHT22;32646;50.958;6.258;2023-03-01T09:49:39;6.10;84.00
46898;DHT22;32646;50.958;6.258;2023-03-01T09:52:29;6.40;87.80
46898;DHT22;32646;50.958;6.258;2023-03-01T09:54:57;6.70;84.40
46898;DHT22;32646;50.958;6.258;2023-03-01T09:57:47;6.80;84.30
46898;DHT22;32646;50.958;6.258;2023-03-01T10:02:58;6.80;83.50
46898;DHT22;32646;50.958;6.258;2023-03-01T10:05:46;6.70;83.30
46898;DHT22;32646;50.958;6.258;2023-03-01T10:08:50;6.70;85.20
46898;DHT22;32646;50.958;6.258;2023-03-01T10:11:21;6.30;83.90
46898;DHT22;32646;50.958;6.258;2023-03-01T10:13:58;6.50;82.60
46898;DHT22;32646;50.958;6.258;2023-03-01T10:16:41;6.30;82.20
46898;DHT22;32646;50.958;6.258;2023-03-01T10:19:20;6.70;81.60
46898;DHT22;32646;50.958;6.258;2023-03-01T10:21:49;6.50;81.00
46898;DHT22;32646;50.958;6.258;2023-03-01T10:24:18;6.10;83.40
46898;DHT22;32646;50.958;6.258;2023-03-01T10:26:55;6.20;82.60
46898;DHT22;32646;50.958;6.258;2023-03-01T10:32:18;6.40;81.90
46898;DHT22;32646;50.958;6.258;2023-03-01T10:34:45;6.50;81.40
46898;DHT22;32646;50.958;6.258;2023-03-01T10:37:15;7.00;82.30
46898;DHT22;32646;50.958;6.258;2023-03-01T10:42:39;7.40;79.00
46898;DHT22;32646;50.958;6.258;2023-03-01T10:48:20;7.60;79.40
46898;DHT22;32646;50.958;6.258;2023-03-01T10:50:49;7.80;78.10
46898;DHT22;32646;50.958;6.258;2023-03-01T10:53:29;7.20;77.40
46898;DHT22;32646;50.958;6.258;2023-03-01T10:56:11;7.40;82.80
46898;DHT22;32646;50.958;6.258;2023-03-01T10:58:40;7.20;79.90
46898;DHT22;32646;50.958;6.258;2023-03-01T11:03:43;7.70;77.60
46898;DHT22;32646;50.958;6.258;2023-03-01T11:08:40;7.60;80.60
46898;DHT22;32646;50.958;6.258;2023-03-01T11:17:05;8.20;77.80
46898;DHT22;32646;50.958;6.258;2023-03-01T11:19:37;8.10;78.40
46898;DHT22;32646;50.958;6.258;2023-03-01T11:22:12;7.90;78.40
46898;DHT22;32646;50.958;6.258;2023-03-01T11:24:54;8.00;78.90
46898;DHT22;32646;50.958;6.258;2023-03-01T11:27:39;8.20;77.50
46898;DHT22;32646;50.958;6.258;2023-03-01T11:30:28;7.90;77.50
46898;DHT22;32646;50.958;6.258;2023-03-01T11:35:37;7.70;78.40
46898;DHT22;32646;50.958;6.258;2023-03-01T11:38:20;7.80;79.20
46898;DHT22;32646;50.958;6.258;2023-03-01T11:43:59;8.30;77.50
46898;DHT22;32646;50.958;6.258;2023-03-01T12:00:30;9.10;75.70
46898;DHT22;32646;50.958;6.258;2023-03-01T12:08:57;9.80;73.80
46898;DHT22;32646;50.958;6.258;2023-03-01T12:11:52;9.00;73.30
46898;DHT22;32646;50.958;6.258;2023-03-01T12:28:04;10.60;71.60
46898;DHT22;32646;50.958;6.258;2023-03-01T12:36:11;9.20;72.40
46898;DHT22;32646;50.958;6.258;2023-03-01T12:38:49;9.20;73.20
46898;DHT22;32646;50.958;6.258;2023-03-01T12:44:10;9.80;73.10
46898;DHT22;32646;50.958;6.258;2023-03-01T12:49:35;9.90;70.00
46898;DHT22;32646;50.958;6.258;2023-03-01T12:54:53;10.10;69.50
46898;DHT22;32646;50.958;6.258;2023-03-01T12:57:40;10.30;68.30
46898;DHT22;32646;50.958;6.258;2023-03-01T13:00:22;10.20;70.30
46898;DHT22;32646;50.958;6.258;2023-03-01T13:11:27;11.10;68.20
46898;DHT22;32646;50.958;6.258;2023-03-01T13:16:50;10.30;68.20
46898;DHT22;32646;50.958;6.258;2023-03-01T13:21:45;11.00;66.90
46898;DHT22;32646;50.958;6.258;2023-03-01T13:37:46;9.90;67.40
46898;DHT22;32646;50.958;6.258;2023-03-01T13:42:45;10.30;66.90
46898;DHT22;32646;50.958;6.258;2023-03-01T13:48:11;10.70;67.40
46898;DHT22;32646;50.958;6.258;2023-03-01T13:50:48;10.40;64.90
46898;DHT22;32646;50.958;6.258;2023-03-01T13:53:22;10.40;66.40
46898;DHT22;32646;50.958;6.258;2023-03-01T13:55:55;10.60;66.10
46898;DHT22;32646;50.958;6.258;2023-03-01T13:58:28;10.10;64.50
46898;DHT22;32646;50.958;6.258;2023-03-01T14:01:31;10.30;66.00
46898;DHT22;32646;50.958;6.258;2023-03-01T14:04:00;10.50;67.00
46898;DHT22;32646;50.958;6.258;2023-03-01T14:06:32;10.60;66.80
46898;DHT22;32646;50.958;6.258;2023-03-01T14:09:19;10.40;65.80
46898;DHT22;32646;50.958;6.258;2023-03-01T14:14:59;10.40;65.40
46898;DHT22;32646;50.958;6.258;2023-03-01T14:20:14;10.50;66.50
46898;DHT22;32646;50.958;6.258;2023-03-01T14:22:43;10.70;65.20
46898;DHT22;32646;50.958;6.258;2023-03-01T14:28:04;11.10;63.70
46898;DHT22;32646;50.958;6.258;2023-03-01T14:30:48;10.40;64.10
46898;DHT22;32646;50.958;6.258;2023-03-01T14:36:06;10.60;65.20
46898;DHT22;32646;50.958;6.258;2023-03-01T14:38:34;9.80;66.30
46898;DHT22;32646;50.958;6.258;2023-03-01T14:41:24;10.10;64.90
46898;DHT22;32646;50.958;6.258;2023-03-01T14:46:31;10.40;65.10
46898;DHT22;32646;50.958;6.258;2023-03-01T14:49:05;10.00;64.10
46898;DHT22;32646;50.958;6.258;2023-03-01T14:51:40;10.20;64.20
46898;DHT22;32646;50.958;6.258;2023-03-01T14:54:24;10.50;65.30
46898;DHT22;32646;50.958;6.258;2023-03-01T14:56:52;10.20;64.10
46898;DHT22;32646;50.958;6.258;2023-03-01T14:59:23;9.60;64.00
46898;DHT22;32646;50.958;6.258;2023-03-01T15:01:51;9.70;66.60
46898;DHT22;32646;50.958;6.258;2023-03-01T15:04:19;9.80;66.80
46898;DHT22;32646;50.958;6.258;2023-03-01T15:06:51;9.90;65.50
46898;DHT22;32646;50.958;6.258;2023-03-01T15:09:19;10.20;63.70
46898;DHT22;32646;50.958;6.258;2023-03-01T15:11:46;10.70;64.40
46898;DHT22;32646;50.958;6.258;2023-03-01T15:14:28;10.70;63.40
46898;DHT22;32646;50.958;6.258;2023-03-01T15:16:56;10.40;64.40
46898;DHT22;32646;50.958;6.258;2023-03-01T15:19:24;10.00;65.00
46898;DHT22;32646;50.958;6.258;2023-03-01T15:21:52;9.80;65.50
46898;DHT22;32646;50.958;6.258;2023-03-01T15:24:26;8.90;66.20
46898;DHT22;32646;50.958;6.258;2023-03-01T15:26:59;8.80;68.00
46898;DHT22;32646;50.958;6.258;2023-03-01T15:29:28;8.60;68.30
46898;DHT22;32646;50.958;6.258;2023-03-01T15:31:58;8.60;67.40
46898;DHT22;32646;50.958;6.258;2023-03-01T15:34:37;8.40;68.00
46898;DHT22;32646;50.958;6.258;2023-03-01T15:40:25;8.20;69.70
46898;DHT22;32646;50.958;6.258;2023-03-01T15:42:52;8.00;69.50
46898;DHT22;32646;50.958;6.258;2023-03-01T15:45:24;8.00;70.50
46898;DHT22;32646;50.958;6.258;2023-03-01T15:48:13;7.90;70.70
46898;DHT22;32646;50.958;6.258;2023-03-01T15:50:41;7.60;70.90
46898;DHT22;32646;50.958;6.258;2023-03-01T15:53:11;7.50;70.50
46898;DHT22;32646;50.958;6.258;2023-03-01T15:55:38;7.50;71.20
46898;DHT22;32646;50.958;6.258;2023-03-01T15:58:11;7.40;72.60
46898;DHT22;32646;50.958;6.258;2023-03-01T16:00:39;7.20;71.90
46898;DHT22;32646;50.958;6.258;2023-03-01T16:03:23;7.30;72.50
46898;DHT22;32646;50.958;6.258;2023-03-01T16:05:50;7.10;73.90
46898;DHT22;32646;50.958;6.258;2023-03-01T16:08:18;6.90;74.30
46898;DHT22;32646;50.958;6.258;2023-03-01T16:10:45;6.90;74.00
46898;DHT22;32646;50.958;6.258;2023-03-01T16:13:12;6.90;74.10
46898;DHT22;32646;50.958;6.258;2023-03-01T16:15:39;6.80;74.90
46898;DHT22;32646;50.958;6.258;2023-03-01T16:18:06;6.80;75.90
46898;DHT22;32646;50.958;6.258;2023-03-01T16:20:33;6.60;76.20
46898;DHT22;32646;50.958;6.258;2023-03-01T16:23:02;6.40;77.80
46898;DHT22;32646;50.958;6.258;2023-03-01T16:25:31;6.30;78.30
46898;DHT22;32646;50.958;6.258;2023-03-01T16:27:58;6.30;79.00
46898;DHT22;32646;50.958;6.258;2023-03-01T16:30:24;6.40;78.40
46898;DHT22;32646;50.958;6.258;2023-03-01T16:32:51;6.20;79.40
46898;DHT22;32646;50.958;6.258;2023-03-01T16:35:19;6.00;79.70
46898;DHT22;32646;50.958;6.258;2023-03-01T16:37:48;6.00;79.80
46898;DHT22;32646;50.958;6.258;2023-03-01T16:40:26;5.80;80.70
46898;DHT22;32646;50.958;6.258;2023-03-01T16:42:54;5.80;80.40
46898;DHT22;32646;50.958;6.258;2023-03-01T16:45:21;5.70;81.30
46898;DHT22;32646;50.958;6.258;2023-03-01T16:47:51;5.60;81.20
46898;DHT22;32646;50.958;6.258;2023-03-01T16:50:22;5.50;81.60
46898;DHT22;32646;50.958;6.258;2023-03-01T16:52:48;5.50;82.60
46898;DHT22;32646;50.958;6.258;2023-03-01T16:55:15;5.40;82.20
46898;DHT22;32646;50.958;6.258;2023-03-01T16:57:42;5.40;82.90
46898;DHT22;32646;50.958;6.258;2023-03-01T17:00:10;5.20;84.00
46898;DHT22;32646;50.958;6.258;2023-03-01T17:02:37;5.20;84.10
46898;DHT22;32646;50.958;6.258;2023-03-01T17:05:04;5.30;84.50
46898;DHT22;32646;50.958;6.258;2023-03-01T17:07:32;5.20;84.30
46898;DHT22;32646;50.958;6.258;2023-03-01T17:10:00;5.10;84.70
46898;DHT22;32646;50.958;6.258;2023-03-01T17:12:27;4.90;85.00
46898;DHT22;32646;50.958;6.258;2023-03-01T17:14:54;4.80;86.00
46898;DHT22;32646;50.958;6.258;2023-03-01T17:17:21;4.80;85.90
46898;DHT22;32646;50.958;6.258;2023-03-01T17:19:47;4.80;86.40
46898;DHT22;32646;50.958;6.258;2023-03-01T17:22:14;4.70;86.30
46898;DHT22;32646;50.958;6.258;2023-03-01T17:24:43;4.60;86.80
46898;DHT22;32646;50.958;6.258;2023-03-01T17:27:11;4.50;85.30
46898;DHT22;32646;50.958;6.258;2023-03-01T17:29:38;4.60;85.70
46898;DHT22;32646;50.958;6.258;2023-03-01T17:32:06;4.50;86.40
46898;DHT22;32646;50.958;6.258;2023-03-01T17:34:33;4.40;86.80
46898;DHT22;32646;50.958;6.258;2023-03-01T17:37:00;4.30;86.90
46898;DHT22;32646;50.958;6.258;2023-03-01T17:39:27;4.30;87.20
46898;DHT22;32646;50.958;6.258;2023-03-01T17:41:56;4.10;87.10
46898;DHT22;32646;50.958;6.258;2023-03-01T17:44:26;4.00;88.00
46898;DHT22;32646;50.958;6.258;2023-03-01T17:46:52;4.00;89.30
46898;DHT22;32646;50.958;6.258;2023-03-01T17:49:19;3.90;88.60
46898;DHT22;32646;50.958;6.258;2023-03-01T17:51:45;3.90;88.70
46898;DHT22;32646;50.958;6.258;2023-03-01T18:06:21;3.80;88.60
46898;DHT22;32646;50.958;6.258;2023-03-01T18:08:49;3.90;88.70
46898;DHT22;32646;50.958;6.258;2023-03-01T18:11:17;3.90;87.30
46898;DHT22;32646;50.958;6.258;2023-03-01T18:13:44;3.90;87.60
46898;DHT22;32646;50.958;6.258;2023-03-01T18:16:43;3.80;88.30
46898;DHT22;32646;50.958;6.258;2023-03-01T18:22:57;3.60;89.30
46898;DHT22;32646;50.958;6.258;2023-03-01T18:33:08;3.70;89.40
46898;DHT22;32646;50.958;6.258;2023-03-01T18:42:32;3.70;89.50
46898;DHT22;32646;50.958;6.258;2023-03-01T18:44:58;3.80;91.00
46898;DHT22;32646;50.958;6.258;2023-03-01T18:47:28;3.70;89.90
46898;DHT22;32646;50.958;6.258;2023-03-01T18:49:54;3.50;89.80
46898;DHT22;32646;50.958;6.258;2023-03-01T18:52:21;3.50;90.20
46898;DHT22;32646;50.958;6.258;2023-03-01T18:54:47;3.40;90.80
46898;DHT22;32646;50.958;6.258;2023-03-01T18:57:14;3.30;90.70
46898;DHT22;32646;50.958;6.258;2023-03-01T18:59:41;3.30;91.00
46898;DHT22;32646;50.958;6.258;2023-03-01T19:02:10;3.20;91.40
46898;DHT22;32646;50.958;6.258;2023-03-01T19:04:37;3.00;91.80
46898;DHT22;32646;50.958;6.258;2023-03-01T19:07:03;3.10;91.90
46898;DHT22;32646;50.958;6.258;2023-03-01T19:09:30;3.00;92.10
46898;DHT22;32646;50.958;6.258;2023-03-01T19:11:56;3.10;91.90
46898;DHT22;32646;50.958;6.258;2023-03-01T19:14:23;3.20;92.00
46898;DHT22;32646;50.958;6.258;2023-03-01T19:16:52;3.10;91.90
46898;DHT22;32646;50.958;6.258;2023-03-01T19:19:19;3.00;92.30
46898;DHT22;32646;50.958;6.258;2023-03-01T19:21:45;3.00;92.20
46898;DHT22;32646;50.958;6.258;2023-03-01T19:24:28;3.00;92.40
46898;DHT22;32646;50.958;6.258;2023-03-01T19:26:55;3.00;92.50
46898;DHT22;32646;50.958;6.258;2023-03-01T19:29:23;2.90;92.90
46898;DHT22;32646;50.958;6.258;2023-03-01T19:31:49;2.80;92.90
46898;DHT22;32646;50.958;6.258;2023-03-01T19:34:16;2.70;93.50
46898;DHT22;32646;50.958;6.258;2023-03-01T19:36:43;2.50;93.80
46898;DHT22;32646;50.958;6.258;2023-03-01T19:39:11;2.50;94.10
46898;DHT22;32646;50.958;6.258;2023-03-01T19:41:40;2.40;94.70
46898;DHT22;32646;50.958;6.258;2023-03-01T19:44:07;2.40;94.80
46898;DHT22;32646;50.958;6.258;2023-03-01T19:46:34;2.30;94.90
46898;DHT22;32646;50.958;6.258;2023-03-01T19:49:02;2.30;94.80
46898;DHT22;32646;50.958;6.258;2023-03-01T19:51:30;2.30;95.40
46898;DHT22;32646;50.958;6.258;2023-03-01T19:53:57;2.20;95.50
46898;DHT22;32646;50.958;6.258;2023-03-01T19:56:24;2.20;95.70
46898;DHT22;32646;50.958;6.258;2023-03-01T19:58:51;2.20;96.30